Time;durP1;ratioP1;P1;durP2;ratioP2;P2;SDS_P1;SDS_P2;PMS_P1;PMS_P2;Temp;Humidity;BMP_temperature;BMP_pressure;BME280_temperature;BME280_humidity;BME280_pressure;Samples;Min_cycle;Max_cycle;Signal;HPM_P1;HPM_P2
2021/09/07 00:00:23;;;;;;;;;5.75;5.50;;;;;24.69;37.21;101685.06;5022682;28;45173;-56
2021/09/07 00:02:48;;;;;;;;;13.00;10.75;;;;;24.73;37.53;101693.78;5022681;28;45151;-55
2021/09/07 00:05:14;;;;;;;;;10.75;10.25;;;;;24.71;37.34;101693.03;5022813;28;45294;-54
2021/09/07 00:07:39;;;;;;;;;8.75;8.50;;;;;24.67;37.49;101693.19;5022835;28;45210;-54
2021/09/07 00:10:10;;;;;;;;;7.75;7.75;;;;;24.63;37.71;101690.75;5022243;28;46482;-55
2021/09/07 00:12:36;;;;;;;;;9.50;9.50;;;;;24.62;37.50;101689.03;5022358;28;45283;-55
2021/09/07 00:15:04;;;;;;;;;6.25;6.25;;;;;24.59;37.57;101690.06;5022762;28;45237;-55
2021/09/07 00:17:29;;;;;;;;;8.75;8.75;;;;;24.56;37.55;101690.22;5021100;28;45199;-55
2021/09/07 00:19:54;;;;;;;;;8.00;8.00;;;;;24.55;37.46;101687.63;5022218;28;45930;-56
2021/09/07 00:22:20;;;;;;;;;8.50;7.75;;;;;24.52;37.61;101688.69;5022346;28;45151;-55
2021/09/07 00:24:45;;;;;;;;;14.25;12.75;;;;;24.49;37.52;101692.41;5022431;28;45404;-55
2021/09/07 00:27:11;;;;;;;;;9.50;9.00;;;;;24.47;37.86;101688.09;5020982;28;45337;-56
2021/09/07 00:29:36;;;;;;;;;13.75;12.00;;;;;24.43;38.06;101686.56;5021861;28;45315;-56
2021/09/07 00:32:02;;;;;;;;;7.50;6.50;;;;;24.42;37.89;101691.03;5022082;28;45327;-56
2021/09/07 00:34:27;;;;;;;;;7.00;7.00;;;;;24.40;37.82;101689.41;5022418;28;45348;-56
2021/09/07 00:36:52;;;;;;;;;9.25;9.25;;;;;24.37;37.98;101690.44;5020804;28;45346;-56
2021/09/07 00:39:18;;;;;;;;;7.25;6.25;;;;;24.33;38.01;101683.53;5022037;28;45292;-56
2021/09/07 00:41:43;;;;;;;;;9.50;9.25;;;;;24.30;37.81;101684.56;5021959;28;45343;-56
2021/09/07 00:44:13;;;;;;;;;8.50;8.50;;;;;24.27;37.79;101681.19;5022106;28;45368;-56
2021/09/07 00:46:38;;;;;;;;;7.25;7.25;;;;;24.24;37.99;101686.72;5021441;28;45436;-55
2021/09/07 00:49:04;;;;;;;;;8.50;8.00;;;;;24.21;38.18;101685.06;5021972;28;45282;-56
2021/09/07 00:51:30;;;;;;;;;9.50;7.50;;;;;24.18;38.24;101677.22;5021965;28;45230;-56
2021/09/07 00:53:56;;;;;;;;;9.25;9.25;;;;;24.12;38.26;101673.03;5021991;28;45383;-53
2021/09/07 00:56:23;;;;;;;;;7.50;6.25;;;;;24.11;38.26;101675.81;5021681;28;45444;-55
2021/09/07 00:58:51;;;;;;;;;9.25;8.75;;;;;24.07;38.33;101666.22;5021748;28;45468;-55
2021/09/07 01:01:17;;;;;;;;;12.75;8.50;;;;;24.02;38.18;101664.66;5021742;28;45411;-56
2021/09/07 01:03:42;;;;;;;;;8.25;7.50;;;;;24.00;38.24;101674.63;5021814;28;45447;-55
2021/09/07 01:06:07;;;;;;;;;13.50;9.25;;;;;23.97;38.27;101672.09;5007056;28;45473;-55
2021/09/07 01:08:33;;;;;;;;;7.00;6.25;;;;;23.93;38.51;101658.94;5021365;28;45273;-54
2021/09/07 01:10:58;;;;;;;;;10.00;9.00;;;;;23.90;38.47;101659.94;5021746;28;45167;-55
2021/09/07 01:13:24;;;;;;;;;10.00;9.00;;;;;23.88;38.28;101651.09;5021655;28;45261;-55
2021/09/07 01:15:49;;;;;;;;;8.25;8.00;;;;;23.85;38.75;101645.94;5021619;28;45158;-55
2021/09/07 01:18:15;;;;;;;;;7.75;7.75;;;;;23.80;38.60;101646.19;5021567;28;45831;-55
2021/09/07 01:20:40;;;;;;;;;8.00;8.00;;;;;23.80;38.95;101642.63;5021541;28;45439;-54
2021/09/07 01:23:05;;;;;;;;;9.25;8.25;;;;;23.77;38.50;101649.03;5021395;28;45534;-55
2021/09/07 01:25:31;;;;;;;;;8.75;8.00;;;;;23.70;38.68;101631.56;5021493;28;45412;-56
2021/09/07 01:27:56;;;;;;;;;11.00;7.75;;;;;23.73;38.80;101641.25;5019621;28;47246;-56
2021/09/07 01:30:22;;;;;;;;;10.25;9.25;;;;;23.69;38.79;101638.72;5021311;28;45347;-56
2021/09/07 01:32:47;;;;;;;;;11.00;10.75;;;;;23.64;38.83;101630.06;5021481;28;45691;-54
2021/09/07 01:35:13;;;;;;;;;9.25;7.75;;;;;23.64;38.71;101627.38;5021310;28;45334;-55
2021/09/07 01:37:40;;;;;;;;;8.50;8.50;;;;;23.61;38.92;101632.03;5021153;28;45907;-56
2021/09/07 01:40:07;;;;;;;;;7.50;7.00;;;;;23.59;38.62;101631.28;5020932;28;45277;-54
2021/09/07 01:42:32;;;;;;;;;9.00;8.50;;;;;23.56;38.74;101626.94;5021297;28;45164;-56
2021/09/07 01:44:57;;;;;;;;;13.75;10.00;;;;;23.55;39.01;101627.91;5021005;28;45701;-55
2021/09/07 01:47:23;;;;;;;;;8.25;8.25;;;;;23.52;39.02;101628.94;5021106;28;45258;-56
2021/09/07 01:49:48;;;;;;;;;11.00;9.00;;;;;23.51;39.10;101629.88;5020960;28;45233;-56
2021/09/07 01:52:14;;;;;;;;;8.50;8.50;;;;;23.51;39.04;101626.34;5021470;28;45217;-56
2021/09/07 01:54:49;;;;;;;;;10.00;8.25;;;;;23.49;39.21;101633.59;5020795;28;45266;-55
2021/09/07 01:57:15;;;;;;;;;12.25;10.00;;;;;23.46;39.24;101623.00;5019370;28;47297;-56
2021/09/07 01:59:41;;;;;;;;;10.00;9.75;;;;;23.44;39.18;101628.47;5020867;28;45479;-56
2021/09/07 02:02:07;;;;;;;;;9.75;9.00;;;;;23.41;39.42;101634.03;5020885;28;45254;-55
2021/09/07 02:04:32;;;;;;;;;10.00;9.25;;;;;23.38;39.15;101634.16;5020840;28;45281;-55
2021/09/07 02:06:57;;;;;;;;;11.75;9.50;;;;;23.37;39.01;101635.13;5020662;28;46017;-56
2021/09/07 02:09:23;;;;;;;;;8.75;8.50;;;;;23.34;39.17;101641.50;5019312;28;45458;-54
2021/09/07 02:11:48;;;;;;;;;8.00;8.00;;;;;23.31;39.08;101630.97;5020805;28;45473;-56
2021/09/07 02:14:14;;;;;;;;;8.50;8.50;;;;;23.28;39.18;101633.81;5020682;28;45322;-55
2021/09/07 02:16:39;;;;;;;;;9.50;8.00;;;;;23.27;39.48;101631.19;5020621;28;45991;-55
2021/09/07 02:19:05;;;;;;;;;10.25;8.50;;;;;23.25;39.23;101630.44;5020558;28;45300;-54
2021/09/07 02:21:30;;;;;;;;;9.50;9.50;;;;;23.23;39.49;101630.50;5020672;28;45359;-56
2021/09/07 02:23:55;;;;;;;;;6.50;6.50;;;;;23.20;39.38;101625.31;5019019;28;45391;-54
2021/09/07 02:26:21;;;;;;;;;10.75;10.25;;;;;23.20;39.55;101623.47;5020553;28;46110;-56
2021/09/07 02:28:46;;;;;;;;;6.75;6.75;;;;;23.19;39.23;101629.81;5018354;28;45407;-55
2021/09/07 02:31:12;;;;;;;;;11.25;8.75;;;;;23.16;39.50;101624.59;5020610;28;45230;-56
2021/09/07 02:33:37;;;;;;;;;10.00;9.00;;;;;23.17;39.72;101628.16;5020312;28;45242;-55
2021/09/07 02:36:03;;;;;;;;;9.50;8.00;;;;;23.16;39.65;101621.06;5020431;28;45200;-56
2021/09/07 02:38:29;;;;;;;;;9.00;6.50;;;;;23.14;39.68;101623.78;5020145;28;45245;-56
2021/09/07 02:40:57;;;;;;;;;8.75;7.50;;;;;23.13;40.15;101618.50;5020424;28;45404;-56
2021/09/07 02:43:24;;;;;;;;;10.50;10.00;;;;;23.03;39.94;101604.72;5019912;28;45320;-56
2021/09/07 02:45:49;;;;;;;;;11.75;10.75;;;;;23.09;39.89;101611.59;5020007;28;45460;-55
2021/09/07 02:48:15;;;;;;;;;10.00;8.50;;;;;23.09;39.90;101603.53;5019909;28;45430;-56
2021/09/07 02:50:40;;;;;;;;;10.00;10.00;;;;;23.07;39.90;101609.00;5020423;28;45371;-55
2021/09/07 02:53:05;;;;;;;;;11.75;9.50;;;;;23.06;39.53;101607.25;5019933;28;45269;-55
2021/09/07 02:55:31;;;;;;;;;9.75;8.25;;;;;23.06;40.14;101601.91;5019903;28;45305;-56
2021/09/07 02:57:56;;;;;;;;;8.50;8.50;;;;;23.04;39.91;101596.63;5019920;28;45348;-56
2021/09/07 03:00:21;;;;;;;;;10.00;10.00;;;;;23.01;39.96;101596.78;5018890;28;45442;-56
2021/09/07 03:02:47;;;;;;;;;10.00;10.00;;;;;22.99;40.00;101590.66;5019992;28;45358;-54
2021/09/07 03:05:12;;;;;;;;;8.00;7.25;;;;;22.97;40.04;101589.00;5018807;28;48116;-55
2021/09/07 03:07:38;;;;;;;;;10.75;8.25;;;;;22.93;40.00;101590.97;5019520;28;45308;-55
2021/09/07 03:10:04;;;;;;;;;10.50;9.00;;;;;22.85;40.24;101577.09;5019830;28;45169;-55
2021/09/07 03:12:29;;;;;;;;;10.00;9.00;;;;;22.88;40.52;101579.63;5018421;28;45374;-55
2021/09/07 03:14:55;;;;;;;;;10.00;9.00;;;;;22.86;40.55;101585.03;5019677;28;45244;-55
2021/09/07 03:17:20;;;;;;;;;9.50;9.25;;;;;22.85;40.17;101586.00;5019814;28;45174;-56
2021/09/07 03:19:45;;;;;;;;;11.75;10.00;;;;;22.84;40.03;101589.63;5019921;28;45750;-54
2021/09/07 03:22:11;;;;;;;;;11.75;10.25;;;;;22.81;40.43;101586.25;5019597;28;45387;-55
2021/09/07 03:24:36;;;;;;;;;7.00;7.00;;;;;22.79;40.38;101588.13;5019646;28;45319;-56
2021/09/07 03:27:02;;;;;;;;;10.75;9.50;;;;;22.77;40.42;101593.59;5019363;28;45441;-56
2021/09/07 03:29:28;;;;;;;;;11.25;10.50;;;;;22.76;40.59;101588.31;5017544;28;45312;-55
2021/09/07 03:31:53;;;;;;;;;10.00;9.00;;;;;22.72;40.32;101588.44;5019406;28;45480;-54
2021/09/07 03:34:18;;;;;;;;;12.75;11.50;;;;;22.69;40.80;101582.38;5019714;28;45307;-55
2021/09/07 03:36:44;;;;;;;;;9.75;8.50;;;;;22.68;40.57;101586.88;5019480;28;45341;-56
2021/09/07 03:39:09;;;;;;;;;8.00;7.50;;;;;22.65;40.80;101576.31;5019596;28;45421;-55
2021/09/07 03:41:34;;;;;;;;;9.25;9.25;;;;;22.63;40.73;101571.97;5019549;28;45484;-56
2021/09/07 03:44:00;;;;;;;;;13.75;11.25;;;;;22.56;40.95;101569.66;5019437;28;46279;-56
2021/09/07 03:46:25;;;;;;;;;12.00;12.00;;;;;22.56;40.64;101572.34;5018082;28;45342;-55
2021/09/07 03:48:51;;;;;;;;;12.75;9.00;;;;;22.53;40.93;101575.16;5019485;28;45673;-55
2021/09/07 03:51:16;;;;;;;;;11.50;10.25;;;;;22.50;40.93;101563.72;5019451;28;45592;-55
2021/09/07 03:53:41;;;;;;;;;10.25;10.00;;;;;22.47;40.79;101571.94;5019246;28;45220;-55
2021/09/07 03:56:07;;;;;;;;;12.00;10.75;;;;;22.46;41.08;101572.88;5019170;28;45479;-54
2021/09/07 03:58:32;;;;;;;;;10.75;9.25;;;;;22.44;41.38;101567.59;5019433;28;45194;-54
2021/09/07 04:00:57;;;;;;;;;9.00;9.00;;;;;22.40;41.32;101564.22;5019349;28;45246;-56
2021/09/07 04:03:23;;;;;;;;;11.25;10.25;;;;;22.40;41.17;101568.69;5019244;28;46130;-55
2021/09/07 04:05:49;;;;;;;;;12.25;10.25;;;;;22.37;41.18;101566.19;5019169;28;45166;-53
2021/09/07 04:08:14;;;;;;;;;10.50;10.50;;;;;22.35;41.17;101566.22;5019106;28;45142;-53
2021/09/07 04:10:40;;;;;;;;;9.00;8.50;;;;;22.32;41.45;101569.03;5017830;28;45291;-54
2021/09/07 04:13:05;;;;;;;;;9.50;8.75;;;;;;;;5019162;28;46129;-55
2021/09/07 04:15:31;;;;;;;;;7.25;7.25;;;;;22.26;41.49;101566.69;5019025;28;45359;-55
2021/09/07 04:17:56;;;;;;;;;9.50;9.50;;;;;22.25;41.31;101573.00;5019108;28;45261;-55
2021/09/07 04:20:22;;;;;;;;;13.00;10.00;;;;;22.23;41.81;101578.41;5020261;28;45285;-54
2021/09/07 04:22:48;;;;;;;;;11.00;11.00;;;;;22.21;41.25;101579.44;5022264;28;45265;-56
2021/09/07 04:25:13;;;;;;;;;9.75;9.00;;;;;22.18;41.65;101574.25;5022179;28;45261;-55
2021/09/07 04:27:38;;;;;;;;;13.25;11.50;;;;;22.16;41.23;101581.47;5020576;28;45578;-54
2021/09/07 04:30:06;;;;;;;;;10.00;9.00;;;;;22.14;41.72;101586.91;5022241;28;45441;-54
2021/09/07 04:32:31;;;;;;;;;11.00;9.25;;;;;22.13;41.44;101593.19;5022067;28;45273;-56
2021/09/07 04:34:57;;;;;;;;;12.25;11.00;;;;;22.10;41.83;101593.38;5022241;28;45416;-56
2021/09/07 04:37:22;;;;;;;;;10.00;10.00;;;;;22.08;41.56;101600.59;5022218;28;45400;-54
2021/09/07 04:39:50;;;;;;;;;10.75;10.75;;;;;22.07;41.62;101604.19;5020579;28;45182;-54
2021/09/07 04:42:17;;;;;;;;;14.25;11.50;;;;;22.03;41.77;101599.94;5021783;28;47155;-55
2021/09/07 04:44:43;;;;;;;;;12.25;12.25;;;;;22.01;41.83;101602.72;5022019;28;45340;-55
2021/09/07 04:47:08;;;;;;;;;17.00;14.00;;;;;21.98;41.98;101613.53;5021997;28;45379;-54
2021/09/07 04:49:33;;;;;;;;;9.25;9.25;;;;;21.95;42.04;101611.03;5022125;28;45298;-56
2021/09/07 04:51:59;;;;;;;;;11.50;11.00;;;;;21.92;41.91;101603.13;5021821;28;45253;-55
2021/09/07 04:54:24;;;;;;;;;12.00;10.25;;;;;21.90;41.99;101611.25;5020421;28;45365;-56
2021/09/07 04:56:49;;;;;;;;;9.25;9.25;;;;;21.89;42.34;101604.16;5020285;28;45372;-55
2021/09/07 04:59:15;;;;;;;;;12.25;10.50;;;;;21.87;41.91;101597.16;5021873;28;45486;-54
2021/09/07 05:01:40;;;;;;;;;12.75;12.00;;;;;21.84;42.17;101598.16;5021626;28;46306;-55
2021/09/07 05:04:05;;;;;;;;;12.25;11.00;;;;;21.83;42.59;101598.25;5021850;28;45352;-55
2021/09/07 05:06:31;;;;;;;;;13.00;11.25;;;;;21.81;41.91;101598.31;5021733;28;45285;-55
2021/09/07 05:08:56;;;;;;;;;13.00;13.00;;;;;21.81;41.98;101606.34;5021638;28;45175;-55
2021/09/07 05:11:22;;;;;;;;;7.50;7.50;;;;;21.81;42.59;101610.81;5021405;28;45275;-54
2021/09/07 05:13:48;;;;;;;;;11.00;11.00;;;;;21.79;42.47;101616.25;5021385;28;45171;-56
2021/09/07 05:16:13;;;;;;;;;15.50;11.50;;;;;21.78;42.05;101616.31;5021547;28;45161;-56
2021/09/07 05:18:39;;;;;;;;;11.75;8.75;;;;;21.77;42.48;101620.78;5021336;28;45161;-62
2021/09/07 05:21:05;;;;;;;;;10.00;10.00;;;;;21.75;42.80;101618.19;5021181;28;46452;-52
2021/09/07 05:23:30;;;;;;;;;12.75;11.25;;;;;21.72;42.33;101621.03;5021211;28;45171;-56
2021/09/07 05:25:56;;;;;;;;;8.00;8.00;;;;;21.71;42.93;101615.72;5021561;28;45443;-63
2021/09/07 05:28:21;;;;;;;;;10.75;10.50;;;;;21.68;42.42;101622.09;5019809;28;45396;-62
2021/09/07 05:30:46;;;;;;;;;10.25;10.25;;;;;21.66;43.07;101615.09;5020824;28;45385;-65
2021/09/07 05:33:12;;;;;;;;;14.25;12.50;;;;;21.64;42.54;101619.66;5020199;28;45459;-68
2021/09/07 05:35:37;;;;;;;;;13.00;13.00;;;;;21.59;42.78;101617.19;5021289;28;45333;-59
2021/09/07 05:38:04;;;;;;;;;10.00;10.00;;;;;21.58;43.21;101613.66;5021168;28;45289;-63
2021/09/07 05:40:29;;;;;;;;;11.75;10.75;;;;;21.57;42.90;101608.34;5020840;28;45411;-61
2021/09/07 05:42:56;;;;;;;;;10.75;10.75;;;;;21.56;42.95;101620.88;5020054;28;45398;-65
2021/09/07 05:45:21;;;;;;;;;12.00;10.00;;;;;21.54;43.57;101628.06;5020758;28;45488;-61
2021/09/07 05:47:46;;;;;;;;;10.75;9.50;;;;;21.53;42.81;101620.97;5020681;28;45416;-63
2021/09/07 05:50:14;;;;;;;;;14.75;13.75;;;;;21.53;42.84;101626.31;5020146;28;46123;-61
2021/09/07 05:52:40;;;;;;;;;10.00;8.75;;;;;21.52;43.02;101626.38;5019847;28;46044;-59
2021/09/07 05:55:06;;;;;;;;;12.00;10.75;;;;;21.52;43.13;101635.31;5020463;28;45350;-56
2021/09/07 05:57:32;;;;;;;;;11.50;10.50;;;;;21.52;42.98;101639.75;5020777;28;45374;-60
2021/09/07 05:59:57;;;;;;;;;12.50;10.75;;;;;21.52;43.44;101640.66;5019095;28;47540;-62
2021/09/07 06:02:23;;;;;;;;;9.00;8.75;;;;;21.53;43.71;101639.69;5020748;28;45316;-56
2021/09/07 06:04:48;;;;;;;;;11.00;9.75;;;;;21.55;43.60;101639.63;5020919;28;45506;-55
2021/09/07 06:07:13;;;;;;;;;14.00;13.25;;;;;21.52;43.11;101637.09;5020847;28;45245;-48
2021/09/07 06:09:39;;;;;;;;;15.50;15.00;;;;;21.55;43.41;101632.50;5020469;28;46593;-47
2021/09/07 06:12:05;;;;;;;;;12.00;11.25;;;;;21.56;43.64;101634.25;5009456;28;45485;-51
2021/09/07 06:14:33;;;;;;;;;16.00;13.00;;;;;21.54;43.33;101621.84;5013016;28;45442;-47
2021/09/07 06:16:58;;;;;;;;;11.50;11.25;;;;;21.58;43.60;101626.13;5000931;28;45240;-51
2021/09/07 06:19:25;;;;;;;;;12.50;12.50;;;;;21.60;43.77;101618.94;5012812;28;46917;-57
2021/09/07 06:21:50;;;;;;;;;13.25;10.00;;;;;21.61;43.22;101631.38;5010949;28;45254;-52
2021/09/07 06:24:16;;;;;;;;;13.00;12.00;;;;;21.63;43.72;101629.47;5020319;28;45137;-52
2021/09/07 06:26:41;;;;;;;;;10.75;10.75;;;;;21.65;43.58;101618.72;5020378;28;45308;-54
2021/09/07 06:29:06;;;;;;;;;9.50;9.50;;;;;21.63;43.67;101616.09;5018623;28;46315;-48
2021/09/07 06:31:32;;;;;;;;;16.00;16.00;;;;;21.74;42.99;101627.16;5020280;28;45308;-51
2021/09/07 06:33:57;;;;;;;;;20.50;16.50;;;;;21.90;42.71;101621.94;5020394;28;45273;-52
2021/09/07 06:36:22;;;;;;;;;19.25;17.50;;;;;21.98;42.35;101618.03;5020369;28;45474;-53
2021/09/07 06:38:48;;;;;;;;;17.75;17.75;;;;;22.06;42.08;101619.41;5019790;28;46392;-51
2021/09/07 06:41:13;;;;;;;;;20.00;17.00;;;;;22.14;41.56;101623.50;5007735;28;45352;-53
2021/09/07 06:43:38;;;;;;;;;20.75;19.25;;;;;22.20;42.23;101628.53;5017568;28;45379;-49
2021/09/07 06:46:04;;;;;;;;;17.50;17.50;;;;;22.22;41.93;101630.19;5019038;28;45508;-54
2021/09/07 06:48:30;;;;;;;;;20.25;16.75;;;;;22.24;41.83;101624.78;5019858;28;45640;-52
2021/09/07 06:50:55;;;;;;;;;17.25;17.25;;;;;22.29;42.19;101628.13;5020130;28;45423;-52
2021/09/07 06:53:21;;;;;;;;;23.00;22.00;;;;;22.31;41.91;101631.56;5019890;28;45432;-53
2021/09/07 06:55:47;;;;;;;;;21.25;18.75;;;;;22.31;42.25;101633.38;5019849;28;45427;-52
2021/09/07 06:58:12;;;;;;;;;20.00;18.00;;;;;22.37;41.82;101636.63;5019672;28;46344;-50
2021/09/07 07:00:37;;;;;;;;;17.75;16.00;;;;;22.39;41.63;101633.91;5019976;28;45162;-54
2021/09/07 07:03:03;;;;;;;;;20.50;16.25;;;;;22.43;41.54;101639.94;5019978;28;45420;-53
2021/09/07 07:05:29;;;;;;;;;20.50;17.25;;;;;22.45;41.37;101641.63;5020118;28;45431;-53
2021/09/07 07:07:54;;;;;;;;;20.75;18.75;;;;;22.46;41.55;101638.00;5019413;28;46162;-54
2021/09/07 07:10:20;;;;;;;;;20.50;17.00;;;;;22.50;41.67;101649.41;5019760;28;45325;-53
2021/09/07 07:12:45;;;;;;;;;16.25;15.50;;;;;22.52;41.58;101639.50;5019723;28;45155;-53
2021/09/07 07:15:11;;;;;;;;;22.50;19.50;;;;;22.53;42.27;101633.22;5019822;28;45515;-53
2021/09/07 07:17:36;;;;;;;;;18.00;16.50;;;;;22.55;41.77;101644.69;5019712;28;45316;-52
2021/09/07 07:20:03;;;;;;;;;21.75;19.25;;;;;22.58;41.84;101641.88;5019628;28;45316;-52
2021/09/07 07:22:28;;;;;;;;;18.75;16.75;;;;;22.61;41.50;101648.91;5019815;28;45386;-54
2021/09/07 07:24:53;;;;;;;;;18.00;17.25;;;;;22.63;41.98;101650.53;5019437;28;45292;-50
2021/09/07 07:27:19;;;;;;;;;19.00;16.75;;;;;22.66;41.72;101657.56;5017731;28;45302;-51
2021/09/07 07:29:44;;;;;;;;;19.75;18.25;;;;;22.68;41.97;101653.84;5019415;28;45360;-53
2021/09/07 07:32:10;;;;;;;;;19.25;16.50;;;;;22.70;41.73;101662.69;5019599;28;45430;-53
2021/09/07 07:34:35;;;;;;;;;18.00;17.00;;;;;22.72;41.74;101666.13;5019715;28;45297;-52
2021/09/07 07:37:04;;;;;;;;;13.75;13.75;;;;;22.75;41.86;101657.06;5019335;28;46066;-53
2021/09/07 07:39:30;;;;;;;;;16.50;16.50;;;;;22.79;41.93;101663.16;5019592;28;45337;-52
2021/09/07 07:41:55;;;;;;;;;20.25;15.75;;;;;22.84;41.36;101666.47;5019233;28;45265;-53
2021/09/07 07:44:23;;;;;;;;;18.00;15.75;;;;;22.86;41.65;101664.56;5018078;28;45501;-53
2021/09/07 07:46:48;;;;;;;;;19.00;13.50;;;;;22.91;41.56;101659.84;5019181;28;45488;-52
2021/09/07 07:49:13;;;;;;;;;18.75;17.00;;;;;22.94;41.61;101654.31;5019433;28;45410;-52
2021/09/07 07:51:39;;;;;;;;;15.75;14.25;;;;;22.96;41.57;101657.78;5019389;28;45632;-51
2021/09/07 07:54:07;;;;;;;;;17.50;15.50;;;;;23.02;41.48;101660.16;5017862;28;45444;-54
2021/09/07 07:56:33;;;;;;;;;21.00;18.25;;;;;23.07;41.31;101653.66;5021860;28;47152;-52
2021/09/07 07:58:58;;;;;;;;;17.50;16.00;;;;;23.11;41.66;101656.13;5022558;28;45405;-51
2021/09/07 08:01:24;;;;;;;;;14.50;14.00;;;;;23.14;41.50;101649.72;5022781;28;45309;-54
2021/09/07 08:03:49;;;;;;;;;17.25;15.50;;;;;23.20;41.54;101662.84;5022683;28;45451;-54
2021/09/07 08:06:15;;;;;;;;;16.00;14.50;;;;;23.23;41.47;101651.94;5022441;28;46132;-53
2021/09/07 08:08:41;;;;;;;;;19.00;16.50;;;;;23.28;41.29;101660.63;5022339;28;45722;-54
2021/09/07 08:11:06;;;;;;;;;17.00;15.00;;;;;23.32;41.48;101664.88;5022576;28;45366;-53
2021/09/07 08:13:31;;;;;;;;;16.75;16.25;;;;;23.40;41.33;101666.28;5022253;28;45540;-51
2021/09/07 08:15:57;;;;;;;;;18.00;15.25;;;;;23.44;41.45;101659.81;5022366;28;46161;-54
2021/09/07 08:18:22;;;;;;;;;15.25;14.25;;;;;23.50;41.12;101663.00;5022542;28;45309;-54
2021/09/07 08:20:49;;;;;;;;;15.75;15.25;;;;;23.56;41.30;101656.47;5022368;28;45335;-54
2021/09/07 08:23:14;;;;;;;;;15.25;15.25;;;;;23.61;41.15;101659.75;5022124;28;45466;-53
2021/09/07 08:25:40;;;;;;;;;15.75;14.75;;;;;23.66;41.23;101655.00;5022267;28;46291;-53
2021/09/07 08:28:05;;;;;;;;;16.50;15.50;;;;;23.75;41.36;101663.47;5020397;28;45595;-53
2021/09/07 08:30:31;;;;;;;;;19.25;16.75;;;;;23.82;41.26;101657.69;5022186;28;45502;-52
2021/09/07 08:32:56;;;;;;;;;15.50;15.25;;;;;23.88;41.20;101655.63;5022448;28;45257;-54
2021/09/07 08:35:21;;;;;;;;;16.25;15.00;;;;;23.93;41.33;101649.06;5021961;28;46108;-53
2021/09/07 08:37:47;;;;;;;;;13.00;12.25;;;;;24.01;41.20;101656.69;5020679;28;45247;-54
2021/09/07 08:40:13;;;;;;;;;12.75;10.75;;;;;24.08;40.87;101659.91;5022099;28;45236;-53
2021/09/07 08:42:38;;;;;;;;;11.00;11.00;;;;;24.16;41.06;101658.50;5011677;28;45515;-51
2021/09/07 08:45:06;;;;;;;;;10.25;10.25;;;;;24.24;41.08;101651.81;5017973;28;45257;-52
2021/09/07 08:47:32;;;;;;;;;14.25;13.25;;;;;24.32;41.13;101657.63;5022034;28;45340;-50
2021/09/07 08:49:57;;;;;;;;;12.00;12.00;;;;;24.40;40.89;101651.78;5021986;28;45346;-50
2021/09/07 08:52:24;;;;;;;;;14.50;14.50;;;;;24.49;40.91;101653.97;5021986;28;45446;-53
2021/09/07 08:54:49;;;;;;;;;13.00;12.00;;;;;24.57;40.87;101659.72;5020360;28;47384;-52
2021/09/07 08:57:16;;;;;;;;;15.00;14.00;;;;;24.60;40.66;101638.06;5021424;28;45315;-51
2021/09/07 08:59:42;;;;;;;;;11.00;11.00;;;;;24.75;40.57;101648.88;5022038;28;45253;-51
2021/09/07 09:02:14;;;;;;;;;11.50;10.50;;;;;24.84;40.49;101648.31;5021718;28;45259;-53
2021/09/07 09:04:44;;;;;;;;;15.50;14.25;;;;;24.96;40.89;101650.25;5020308;28;47781;-53
2021/09/07 09:07:18;;;;;;;;;13.75;13.00;;;;;25.07;40.52;101655.00;5021126;28;45238;-50
2021/09/07 09:09:45;;;;;;;;;12.50;10.50;;;;;25.17;40.30;101663.38;5021353;28;45288;-54
2021/09/07 09:12:10;;;;;;;;;14.25;12.00;;;;;25.25;40.17;101658.38;5021652;28;45381;-53
2021/09/07 09:14:44;;;;;;;;;14.00;12.50;;;;;25.36;40.48;101657.75;5021225;28;46885;-54
2021/09/07 09:17:24;;;;;;;;;11.75;10.75;;;;;25.51;40.00;101655.03;5021658;28;45435;-54
2021/09/07 09:19:54;;;;;;;;;12.00;12.00;;;;;25.62;39.93;101663.28;5021640;28;45332;-53
2021/09/07 09:22:21;;;;;;;;;14.00;14.00;;;;;25.74;39.74;101661.66;5021336;28;45450;-53
2021/09/07 09:24:47;;;;;;;;;13.75;13.75;;;;;25.84;39.94;101660.09;5021062;28;47121;-54
2021/09/07 09:27:12;;;;;;;;;10.25;10.25;;;;;25.97;39.89;101662.84;5019734;28;45369;-54
2021/09/07 09:29:43;;;;;;;;;12.00;12.00;;;;;26.09;39.25;101662.09;5021274;28;45324;-52
2021/09/07 09:32:16;;;;;;;;;13.25;12.75;;;;;26.22;39.81;101662.13;5021368;28;45579;-53
2021/09/07 09:34:42;;;;;;;;;16.75;15.50;;;;;26.35;39.06;101662.22;5021364;28;46306;-51
2021/09/07 09:37:07;;;;;;;;;14.00;12.25;;;;;26.49;39.39;101660.41;5021069;28;45387;-52
2021/09/07 09:39:44;;;;;;;;;14.50;13.75;;;;;26.61;39.47;101646.94;5021197;28;45502;-53
2021/09/07 09:42:34;;;;;;;;;15.00;11.75;;;;;26.75;38.75;101653.28;5020996;28;45591;-53
2021/09/07 09:45:01;;;;;;;;;14.25;13.25;;;;;26.89;39.00;101650.50;5020597;28;45387;-53
2021/09/07 09:47:52;;;;;;;;;12.25;12.25;;;;;27.05;38.72;101644.03;5020936;28;45246;-54
2021/09/07 09:50:19;;;;;;;;;15.50;12.50;;;;;27.19;38.90;101643.06;5018820;28;45290;-54
2021/09/07 09:52:46;;;;;;;;;13.25;11.75;;;;;27.30;38.40;101640.47;5020758;28;45491;-51
2021/09/07 09:55:13;;;;;;;;;16.50;12.50;;;;;27.45;38.84;101640.38;5020519;28;45174;-53
2021/09/07 09:57:40;;;;;;;;;12.75;10.75;;;;;27.57;38.56;101639.47;5020817;28;45304;-54
2021/09/07 10:00:11;;;;;;;;;13.75;11.75;;;;;27.72;38.41;101641.06;5020667;28;45337;-54
2021/09/07 10:02:37;;;;;;;;;12.50;12.50;;;;;27.86;37.82;101636.47;5020778;28;45556;-53
2021/09/07 10:05:03;;;;;;;;;12.50;12.25;;;;;27.98;38.13;101635.56;5020533;28;45229;-51
2021/09/07 10:07:28;;;;;;;;;15.00;15.00;;;;;28.14;38.28;101629.94;5020553;28;45208;-54
2021/09/07 10:09:57;;;;;;;;;13.25;12.25;;;;;28.29;37.97;101635.16;5020466;28;45309;-51
2021/09/07 10:12:39;;;;;;;;;13.75;12.75;;;;;28.43;38.00;101631.41;5020450;28;45336;-50
2021/09/07 10:15:26;;;;;;;;;13.25;12.00;;;;;28.62;38.13;101630.88;5020375;28;46131;-53
2021/09/07 10:18:38;;;;;;;;;12.00;11.75;;;;;28.80;37.50;101621.34;5019452;28;45328;-53
2021/09/07 10:21:08;;;;;;;;;14.75;10.25;;;;;28.98;37.30;101612.75;5020460;28;45287;-52
2021/09/07 10:24:02;;;;;;;;;12.00;11.00;;;;;29.13;37.34;101616.97;5020252;28;45524;-50
2021/09/07 10:26:37;;;;;;;;;12.75;12.75;;;;;29.30;37.15;101610.22;5020587;28;45357;-51
2021/09/07 10:29:06;;;;;;;;;11.50;11.50;;;;;29.43;37.13;101599.25;5018021;28;45254;-53
2021/09/07 10:31:53;;;;;;;;;11.00;11.00;;;;;29.61;37.08;101606.88;5020395;28;45316;-52
2021/09/07 10:34:25;;;;;;;;;14.50;13.50;;;;;29.77;36.83;101592.94;4999165;28;45378;-53
2021/09/07 10:37:08;;;;;;;;;15.00;13.50;;;;;29.94;36.95;101591.59;5000176;28;47047;-54
2021/09/07 10:39:44;;;;;;;;;14.25;12.00;;;;;30.12;36.91;101589.16;5000159;28;45322;-54
2021/09/07 10:42:14;;;;;;;;;14.00;13.25;;;;;30.27;36.38;101585.16;5000309;28;45341;-53
2021/09/07 10:44:42;;;;;;;;;15.25;13.25;;;;;30.44;36.75;101586.44;4999085;28;45864;-53
2021/09/07 10:47:11;;;;;;;;;14.00;13.50;;;;;30.64;36.51;101578.44;5000031;28;45324;-53
2021/09/07 10:49:37;;;;;;;;;13.50;13.00;;;;;30.83;36.33;101580.44;5000190;28;45174;-54
2021/09/07 10:52:08;;;;;;;;;12.75;11.75;;;;;31.03;36.34;101577.78;5000258;28;45490;-52
2021/09/07 10:54:55;;;;;;;;;13.75;12.25;;;;;31.24;36.44;101572.34;4999828;28;45524;-53
2021/09/07 11:00:13;;;;;;;;;14.75;14.75;;;;;31.76;35.89;101566.78;5000047;28;45332;-54
2021/09/07 11:03:03;;;;;;;;;17.00;14.25;;;;;32.05;35.87;101563.22;5000147;28;45324;-54
2021/09/07 11:05:29;;;;;;;;;13.00;13.00;;;;;32.33;35.46;101563.41;5000204;28;45475;-54
2021/09/07 11:08:05;;;;;;;;;14.25;12.50;;;;;32.67;35.92;101552.84;4999644;28;46223;-53
2021/09/07 11:10:32;;;;;;;;;11.75;10.00;;;;;33.02;35.81;101547.78;5000107;28;45266;-54
2021/09/07 11:13:03;;;;;;;;;10.00;10.00;;;;;33.39;35.59;101541.44;4999852;28;45479;-50
2021/09/07 11:15:33;;;;;;;;;8.50;8.50;;;;;33.83;35.50;101543.44;5000020;28;45311;-54